Mist, Arkansas
Current Conditions -  °F | °C
As of 1:55 PM on Thursday 30 Oct 2014 (Local Time) from KBQP Reporting Station
Clear Clear  
Wind Chill: 73°   Ceiling: Unl
Heat Index: 73°   Visibility: 10mi
Dew Point: 42°   Wind: 0mph
Humidity: 33%   Direction: NA
Pressure: 30.11"   Gusts: NA
Location:  33.1762°N, 91.7595°W
Report Text: KBQP 301855Z AUTO 00000KT 10SM CLR 23/06 A3011 RMK AO2 T02300058
Loading
Personal Weather Stations






























Interactive Weather Map
Tropical Storm Tracking
New forecast layout! Learn more

10-Day Weather Forecast

Advertisements
Track Severe Weather on mobile